sensor_id;sensor_type;location;lat;lon;timestamp;P1;durP1;ratioP1;P2;durP2;ratioP2
46399;SDS011;32104;50.838;4.388;2022-12-10T00:01:10;53.67;;;14.82;;
46399;SDS011;32104;50.838;4.388;2022-12-10T00:03:41;50.78;;;14.38;;
46399;SDS011;32104;50.838;4.388;2022-12-10T00:06:09;52.47;;;16.80;;
46399;SDS011;32104;50.838;4.388;2022-12-10T00:08:39;54.92;;;14.10;;
46399;SDS011;32104;50.838;4.388;2022-12-10T00:11:07;48.97;;;14.70;;
46399;SDS011;32104;50.838;4.388;2022-12-10T00:13:40;53.70;;;14.75;;
46399;SDS011;32104;50.838;4.388;2022-12-10T00:16:09;50.30;;;14.93;;
46399;SDS011;32104;50.838;4.388;2022-12-10T00:18:41;46.75;;;14.65;;
46399;SDS011;32104;50.838;4.388;2022-12-10T00:21:12;52.65;;;13.63;;
46399;SDS011;32104;50.838;4.388;2022-12-10T00:23:40;49.67;;;15.00;;
46399;SDS011;32104;50.838;4.388;2022-12-10T00:26:11;51.90;;;15.20;;
46399;SDS011;32104;50.838;4.388;2022-12-10T00:28:41;50.90;;;15.00;;
46399;SDS011;32104;50.838;4.388;2022-12-10T00:31:18;45.92;;;14.65;;
46399;SDS011;32104;50.838;4.388;2022-12-10T00:33:46;58.15;;;15.63;;
46399;SDS011;32104;50.838;4.388;2022-12-10T00:38:50;44.65;;;12.68;;
46399;SDS011;32104;50.838;4.388;2022-12-10T00:41:20;51.42;;;14.32;;
46399;SDS011;32104;50.838;4.388;2022-12-10T00:43:46;42.38;;;13.85;;
46399;SDS011;32104;50.838;4.388;2022-12-10T00:46:14;50.30;;;15.65;;
46399;SDS011;32104;50.838;4.388;2022-12-10T00:48:41;55.58;;;14.73;;
46399;SDS011;32104;50.838;4.388;2022-12-10T00:51:09;47.38;;;14.80;;
46399;SDS011;32104;50.838;4.388;2022-12-10T00:53:37;47.03;;;14.07;;
46399;SDS011;32104;50.838;4.388;2022-12-10T00:56:04;46.58;;;13.15;;
46399;SDS011;32104;50.838;4.388;2022-12-10T00:58:32;46.88;;;14.20;;
46399;SDS011;32104;50.838;4.388;2022-12-10T01:03:35;43.47;;;13.30;;
46399;SDS011;32104;50.838;4.388;2022-12-10T01:06:35;46.92;;;13.13;;
46399;SDS011;32104;50.838;4.388;2022-12-10T01:08:59;52.42;;;11.30;;
46399;SDS011;32104;50.838;4.388;2022-12-10T01:11:32;41.97;;;13.48;;
46399;SDS011;32104;50.838;4.388;2022-12-10T01:14:03;42.65;;;12.25;;
46399;SDS011;32104;50.838;4.388;2022-12-10T01:16:29;38.47;;;13.07;;
46399;SDS011;32104;50.838;4.388;2022-12-10T01:18:56;46.10;;;14.40;;
46399;SDS011;32104;50.838;4.388;2022-12-10T01:21:25;46.63;;;14.50;;
46399;SDS011;32104;50.838;4.388;2022-12-10T01:23:59;52.08;;;13.02;;
46399;SDS011;32104;50.838;4.388;2022-12-10T01:26:29;36.45;;;12.73;;
46399;SDS011;32104;50.838;4.388;2022-12-10T01:28:57;43.17;;;13.43;;
46399;SDS011;32104;50.838;4.388;2022-12-10T01:31:26;53.45;;;14.02;;
46399;SDS011;32104;50.838;4.388;2022-12-10T01:33:55;47.17;;;13.45;;
46399;SDS011;32104;50.838;4.388;2022-12-10T01:36:33;48.15;;;13.88;;
46399;SDS011;32104;50.838;4.388;2022-12-10T01:39:12;50.45;;;14.52;;
46399;SDS011;32104;50.838;4.388;2022-12-10T01:41:43;49.60;;;15.48;;
46399;SDS011;32104;50.838;4.388;2022-12-10T01:49:07;46.45;;;13.45;;
46399;SDS011;32104;50.838;4.388;2022-12-10T01:51:42;47.13;;;15.20;;
46399;SDS011;32104;50.838;4.388;2022-12-10T01:54:10;42.35;;;15.20;;
46399;SDS011;32104;50.838;4.388;2022-12-10T01:56:42;52.72;;;15.77;;
46399;SDS011;32104;50.838;4.388;2022-12-10T02:09:56;50.28;;;15.10;;
46399;SDS011;32104;50.838;4.388;2022-12-10T02:12:35;53.50;;;15.98;;
46399;SDS011;32104;50.838;4.388;2022-12-10T02:15:16;54.72;;;16.83;;
46399;SDS011;32104;50.838;4.388;2022-12-10T02:17:48;67.05;;;18.00;;
46399;SDS011;32104;50.838;4.388;2022-12-10T02:20:37;51.10;;;17.45;;
46399;SDS011;32104;50.838;4.388;2022-12-10T02:23:09;43.08;;;14.00;;
46399;SDS011;32104;50.838;4.388;2022-12-10T02:31:42;50.78;;;14.23;;
46399;SDS011;32104;50.838;4.388;2022-12-10T02:34:11;53.70;;;17.02;;
46399;SDS011;32104;50.838;4.388;2022-12-10T02:36:39;53.22;;;16.88;;
46399;SDS011;32104;50.838;4.388;2022-12-10T02:39:10;54.40;;;15.90;;
46399;SDS011;32104;50.838;4.388;2022-12-10T02:41:40;57.88;;;17.00;;
46399;SDS011;32104;50.838;4.388;2022-12-10T02:44:11;66.20;;;16.50;;
46399;SDS011;32104;50.838;4.388;2022-12-10T02:46:38;50.50;;;16.70;;
46399;SDS011;32104;50.838;4.388;2022-12-10T02:49:07;57.55;;;18.08;;
46399;SDS011;32104;50.838;4.388;2022-12-10T02:51:36;76.53;;;19.20;;
46399;SDS011;32104;50.838;4.388;2022-12-10T02:54:03;61.92;;;16.98;;
46399;SDS011;32104;50.838;4.388;2022-12-10T02:56:50;68.32;;;17.33;;
46399;SDS011;32104;50.838;4.388;2022-12-10T02:59:43;68.47;;;18.38;;
46399;SDS011;32104;50.838;4.388;2022-12-10T03:02:19;74.05;;;19.50;;
46399;SDS011;32104;50.838;4.388;2022-12-10T03:07:55;64.20;;;19.38;;
46399;SDS011;32104;50.838;4.388;2022-12-10T03:10:33;70.72;;;19.92;;
46399;SDS011;32104;50.838;4.388;2022-12-10T03:13:06;61.00;;;20.52;;
46399;SDS011;32104;50.838;4.388;2022-12-10T03:15:38;63.53;;;19.83;;
46399;SDS011;32104;50.838;4.388;2022-12-10T03:18:06;72.30;;;21.63;;
46399;SDS011;32104;50.838;4.388;2022-12-10T03:20:34;80.13;;;20.13;;
46399;SDS011;32104;50.838;4.388;2022-12-10T03:23:04;70.65;;;20.23;;
46399;SDS011;32104;50.838;4.388;2022-12-10T03:25:35;80.63;;;22.33;;
46399;SDS011;32104;50.838;4.388;2022-12-10T03:28:02;83.32;;;21.27;;
46399;SDS011;32104;50.838;4.388;2022-12-10T03:30:32;82.28;;;23.63;;
46399;SDS011;32104;50.838;4.388;2022-12-10T03:33:00;84.82;;;23.30;;
46399;SDS011;32104;50.838;4.388;2022-12-10T03:35:27;75.60;;;22.23;;
46399;SDS011;32104;50.838;4.388;2022-12-10T03:37:52;76.13;;;21.15;;
46399;SDS011;32104;50.838;4.388;2022-12-10T03:40:20;82.40;;;23.70;;
46399;SDS011;32104;50.838;4.388;2022-12-10T03:42:49;90.13;;;22.60;;
46399;SDS011;32104;50.838;4.388;2022-12-10T03:45:15;76.97;;;22.25;;
46399;SDS011;32104;50.838;4.388;2022-12-10T03:47:41;92.00;;;22.52;;
46399;SDS011;32104;50.838;4.388;2022-12-10T03:50:16;84.28;;;21.80;;
46399;SDS011;32104;50.838;4.388;2022-12-10T03:52:42;64.68;;;20.30;;
46399;SDS011;32104;50.838;4.388;2022-12-10T03:55:08;75.43;;;21.02;;
46399;SDS011;32104;50.838;4.388;2022-12-10T03:57:36;69.35;;;18.70;;
46399;SDS011;32104;50.838;4.388;2022-12-10T04:00:03;71.00;;;20.10;;
46399;SDS011;32104;50.838;4.388;2022-12-10T04:02:30;67.30;;;18.40;;
46399;SDS011;32104;50.838;4.388;2022-12-10T04:04:57;80.93;;;20.80;;
46399;SDS011;32104;50.838;4.388;2022-12-10T04:07:23;86.22;;;20.65;;
46399;SDS011;32104;50.838;4.388;2022-12-10T04:09:49;72.35;;;19.50;;
46399;SDS011;32104;50.838;4.388;2022-12-10T04:12:15;77.05;;;20.70;;
46399;SDS011;32104;50.838;4.388;2022-12-10T04:14:41;79.28;;;21.95;;
46399;SDS011;32104;50.838;4.388;2022-12-10T04:17:25;90.72;;;22.42;;
46399;SDS011;32104;50.838;4.388;2022-12-10T04:19:51;89.07;;;22.50;;
46399;SDS011;32104;50.838;4.388;2022-12-10T04:22:16;76.93;;;21.52;;
46399;SDS011;32104;50.838;4.388;2022-12-10T04:25:01;78.05;;;21.35;;
46399;SDS011;32104;50.838;4.388;2022-12-10T04:27:52;87.90;;;23.48;;
46399;SDS011;32104;50.838;4.388;2022-12-10T04:30:18;76.78;;;20.27;;
46399;SDS011;32104;50.838;4.388;2022-12-10T04:32:49;79.03;;;22.05;;
46399;SDS011;32104;50.838;4.388;2022-12-10T04:35:14;93.82;;;23.48;;
46399;SDS011;32104;50.838;4.388;2022-12-10T04:37:40;86.68;;;21.73;;
46399;SDS011;32104;50.838;4.388;2022-12-10T04:40:06;72.57;;;18.52;;
46399;SDS011;32104;50.838;4.388;2022-12-10T04:42:32;73.57;;;18.58;;
46399;SDS011;32104;50.838;4.388;2022-12-10T04:44:58;81.63;;;20.50;;
46399;SDS011;32104;50.838;4.388;2022-12-10T04:47:24;87.32;;;21.75;;
46399;SDS011;32104;50.838;4.388;2022-12-10T04:49:50;81.55;;;19.90;;
46399;SDS011;32104;50.838;4.388;2022-12-10T04:52:18;80.00;;;19.77;;
46399;SDS011;32104;50.838;4.388;2022-12-10T04:54:44;79.90;;;19.02;;
46399;SDS011;32104;50.838;4.388;2022-12-10T04:57:10;68.65;;;19.42;;
46399;SDS011;32104;50.838;4.388;2022-12-10T04:59:39;60.70;;;16.38;;
46399;SDS011;32104;50.838;4.388;2022-12-10T05:02:05;69.82;;;17.38;;
46399;SDS011;32104;50.838;4.388;2022-12-10T05:04:31;74.18;;;19.15;;
46399;SDS011;32104;50.838;4.388;2022-12-10T05:06:57;89.82;;;19.58;;
46399;SDS011;32104;50.838;4.388;2022-12-10T05:09:22;71.88;;;17.38;;
46399;SDS011;32104;50.838;4.388;2022-12-10T05:11:48;70.43;;;18.40;;
46399;SDS011;32104;50.838;4.388;2022-12-10T05:14:15;70.82;;;17.33;;
46399;SDS011;32104;50.838;4.388;2022-12-10T05:16:41;85.72;;;17.92;;
46399;SDS011;32104;50.838;4.388;2022-12-10T05:19:08;79.93;;;18.20;;
46399;SDS011;32104;50.838;4.388;2022-12-10T05:21:40;80.40;;;19.40;;
46399;SDS011;32104;50.838;4.388;2022-12-10T05:24:24;77.07;;;18.85;;
46399;SDS011;32104;50.838;4.388;2022-12-10T05:26:50;79.22;;;18.83;;
46399;SDS011;32104;50.838;4.388;2022-12-10T05:29:16;85.60;;;19.30;;
46399;SDS011;32104;50.838;4.388;2022-12-10T05:31:43;88.95;;;19.10;;
46399;SDS011;32104;50.838;4.388;2022-12-10T05:34:09;69.82;;;18.83;;
46399;SDS011;32104;50.838;4.388;2022-12-10T05:36:36;85.93;;;18.88;;
46399;SDS011;32104;50.838;4.388;2022-12-10T05:39:02;79.63;;;18.83;;
46399;SDS011;32104;50.838;4.388;2022-12-10T05:41:31;90.85;;;20.48;;
46399;SDS011;32104;50.838;4.388;2022-12-10T05:44:00;80.35;;;19.40;;
46399;SDS011;32104;50.838;4.388;2022-12-10T05:46:27;75.88;;;17.85;;
46399;SDS011;32104;50.838;4.388;2022-12-10T05:48:54;81.85;;;19.05;;
46399;SDS011;32104;50.838;4.388;2022-12-10T05:51:22;76.45;;;17.42;;
46399;SDS011;32104;50.838;4.388;2022-12-10T05:53:52;78.57;;;17.90;;
46399;SDS011;32104;50.838;4.388;2022-12-10T05:56:20;70.18;;;16.33;;
46399;SDS011;32104;50.838;4.388;2022-12-10T05:58:48;70.40;;;16.90;;
46399;SDS011;32104;50.838;4.388;2022-12-10T06:01:19;74.78;;;17.27;;
46399;SDS011;32104;50.838;4.388;2022-12-10T06:03:47;73.45;;;16.52;;
46399;SDS011;32104;50.838;4.388;2022-12-10T06:06:19;67.40;;;16.23;;
46399;SDS011;32104;50.838;4.388;2022-12-10T06:08:49;69.28;;;16.35;;
46399;SDS011;32104;50.838;4.388;2022-12-10T06:11:15;68.10;;;16.92;;
46399;SDS011;32104;50.838;4.388;2022-12-10T06:13:41;70.30;;;17.45;;
46399;SDS011;32104;50.838;4.388;2022-12-10T06:16:08;65.63;;;18.00;;
46399;SDS011;32104;50.838;4.388;2022-12-10T06:18:35;78.90;;;19.70;;
46399;SDS011;32104;50.838;4.388;2022-12-10T06:21:02;68.68;;;16.90;;
46399;SDS011;32104;50.838;4.388;2022-12-10T06:23:29;72.65;;;16.15;;
46399;SDS011;32104;50.838;4.388;2022-12-10T06:25:55;70.63;;;16.77;;
46399;SDS011;32104;50.838;4.388;2022-12-10T06:28:24;71.50;;;16.85;;
46399;SDS011;32104;50.838;4.388;2022-12-10T06:30:49;67.47;;;16.60;;
46399;SDS011;32104;50.838;4.388;2022-12-10T06:33:15;71.85;;;16.70;;
46399;SDS011;32104;50.838;4.388;2022-12-10T06:35:41;72.85;;;17.65;;
46399;SDS011;32104;50.838;4.388;2022-12-10T06:38:07;68.47;;;16.52;;
46399;SDS011;32104;50.838;4.388;2022-12-10T06:40:32;86.00;;;15.00;;
46399;SDS011;32104;50.838;4.388;2022-12-10T06:42:58;72.07;;;15.15;;
46399;SDS011;32104;50.838;4.388;2022-12-10T06:45:24;60.17;;;15.52;;
46399;SDS011;32104;50.838;4.388;2022-12-10T06:47:51;63.88;;;15.98;;
46399;SDS011;32104;50.838;4.388;2022-12-10T06:50:17;80.15;;;15.23;;
46399;SDS011;32104;50.838;4.388;2022-12-10T06:52:42;51.90;;;14.50;;
46399;SDS011;32104;50.838;4.388;2022-12-10T06:55:08;65.65;;;14.45;;
46399;SDS011;32104;50.838;4.388;2022-12-10T06:57:34;66.88;;;13.80;;
46399;SDS011;32104;50.838;4.388;2022-12-10T07:00:01;73.00;;;16.15;;
46399;SDS011;32104;50.838;4.388;2022-12-10T07:02:27;69.07;;;15.00;;
46399;SDS011;32104;50.838;4.388;2022-12-10T07:04:53;59.10;;;14.05;;
46399;SDS011;32104;50.838;4.388;2022-12-10T07:07:21;50.40;;;12.52;;
46399;SDS011;32104;50.838;4.388;2022-12-10T07:09:47;61.45;;;14.73;;
46399;SDS011;32104;50.838;4.388;2022-12-10T07:12:13;76.30;;;16.33;;
46399;SDS011;32104;50.838;4.388;2022-12-10T07:14:40;77.25;;;15.65;;
46399;SDS011;32104;50.838;4.388;2022-12-10T07:17:06;67.18;;;15.73;;
46399;SDS011;32104;50.838;4.388;2022-12-10T07:19:32;68.00;;;15.40;;
46399;SDS011;32104;50.838;4.388;2022-12-10T07:21:58;70.53;;;15.15;;
46399;SDS011;32104;50.838;4.388;2022-12-10T07:24:24;72.97;;;15.50;;
46399;SDS011;32104;50.838;4.388;2022-12-10T07:26:50;71.45;;;15.18;;
46399;SDS011;32104;50.838;4.388;2022-12-10T07:29:18;72.32;;;15.35;;
46399;SDS011;32104;50.838;4.388;2022-12-10T07:31:45;54.05;;;14.43;;
46399;SDS011;32104;50.838;4.388;2022-12-10T07:34:19;62.08;;;13.82;;
46399;SDS011;32104;50.838;4.388;2022-12-10T07:36:44;67.57;;;15.43;;
46399;SDS011;32104;50.838;4.388;2022-12-10T07:39:10;75.25;;;17.15;;
46399;SDS011;32104;50.838;4.388;2022-12-10T07:41:42;73.45;;;15.65;;
46399;SDS011;32104;50.838;4.388;2022-12-10T07:44:18;76.40;;;16.00;;
46399;SDS011;32104;50.838;4.388;2022-12-10T07:46:46;77.65;;;17.48;;
46399;SDS011;32104;50.838;4.388;2022-12-10T07:49:13;82.10;;;16.95;;
46399;SDS011;32104;50.838;4.388;2022-12-10T07:51:42;82.40;;;17.63;;
46399;SDS011;32104;50.838;4.388;2022-12-10T07:54:09;82.25;;;18.67;;
46399;SDS011;32104;50.838;4.388;2022-12-10T07:56:35;68.72;;;17.77;;
46399;SDS011;32104;50.838;4.388;2022-12-10T07:59:01;86.32;;;19.05;;
46399;SDS011;32104;50.838;4.388;2022-12-10T08:01:27;85.28;;;18.45;;
46399;SDS011;32104;50.838;4.388;2022-12-10T08:03:54;69.38;;;16.48;;
46399;SDS011;32104;50.838;4.388;2022-12-10T08:06:23;74.35;;;14.45;;
46399;SDS011;32104;50.838;4.388;2022-12-10T08:08:51;78.35;;;15.90;;
46399;SDS011;32104;50.838;4.388;2022-12-10T08:11:18;61.70;;;14.15;;
46399;SDS011;32104;50.838;4.388;2022-12-10T08:13:45;63.22;;;15.43;;
46399;SDS011;32104;50.838;4.388;2022-12-10T08:16:12;73.80;;;15.65;;
46399;SDS011;32104;50.838;4.388;2022-12-10T08:18:40;65.15;;;15.88;;
46399;SDS011;32104;50.838;4.388;2022-12-10T08:21:49;70.13;;;15.05;;
46399;SDS011;32104;50.838;4.388;2022-12-10T08:24:08;61.17;;;13.48;;
46399;SDS011;32104;50.838;4.388;2022-12-10T08:26:34;68.15;;;15.20;;
46399;SDS011;32104;50.838;4.388;2022-12-10T08:28:59;74.90;;;15.63;;
46399;SDS011;32104;50.838;4.388;2022-12-10T08:31:33;74.35;;;15.70;;
46399;SDS011;32104;50.838;4.388;2022-12-10T08:34:01;58.00;;;14.55;;
46399;SDS011;32104;50.838;4.388;2022-12-10T08:36:27;63.90;;;15.02;;
46399;SDS011;32104;50.838;4.388;2022-12-10T08:41:22;53.00;;;13.52;;
46399;SDS011;32104;50.838;4.388;2022-12-10T08:43:48;63.85;;;16.35;;
46399;SDS011;32104;50.838;4.388;2022-12-10T08:46:16;61.10;;;14.10;;
46399;SDS011;32104;50.838;4.388;2022-12-10T08:48:42;51.78;;;13.40;;
46399;SDS011;32104;50.838;4.388;2022-12-10T08:51:10;55.53;;;13.32;;
46399;SDS011;32104;50.838;4.388;2022-12-10T08:53:41;67.88;;;14.23;;
46399;SDS011;32104;50.838;4.388;2022-12-10T08:56:07;63.00;;;14.55;;
46399;SDS011;32104;50.838;4.388;2022-12-10T08:58:34;58.95;;;15.57;;
46399;SDS011;32104;50.838;4.388;2022-12-10T09:01:05;65.68;;;14.18;;
46399;SDS011;32104;50.838;4.388;2022-12-10T09:03:32;55.53;;;12.35;;
46399;SDS011;32104;50.838;4.388;2022-12-10T09:06:09;71.95;;;15.10;;
46399;SDS011;32104;50.838;4.388;2022-12-10T09:08:38;66.43;;;14.27;;
46399;SDS011;32104;50.838;4.388;2022-12-10T09:11:08;72.43;;;16.13;;
46399;SDS011;32104;50.838;4.388;2022-12-10T09:13:36;68.13;;;14.88;;
46399;SDS011;32104;50.838;4.388;2022-12-10T09:16:02;67.18;;;15.52;;
46399;SDS011;32104;50.838;4.388;2022-12-10T09:18:28;54.78;;;14.73;;
46399;SDS011;32104;50.838;4.388;2022-12-10T09:20:54;69.18;;;14.32;;
46399;SDS011;32104;50.838;4.388;2022-12-10T09:23:22;78.10;;;14.70;;
46399;SDS011;32104;50.838;4.388;2022-12-10T09:25:48;57.40;;;13.82;;
46399;SDS011;32104;50.838;4.388;2022-12-10T09:28:17;64.75;;;15.85;;
46399;SDS011;32104;50.838;4.388;2022-12-10T09:30:43;70.22;;;16.63;;
46399;SDS011;32104;50.838;4.388;2022-12-10T09:33:09;79.95;;;16.70;;
46399;SDS011;32104;50.838;4.388;2022-12-10T09:35:42;81.72;;;17.77;;
46399;SDS011;32104;50.838;4.388;2022-12-10T09:38:08;80.82;;;17.70;;
46399;SDS011;32104;50.838;4.388;2022-12-10T09:40:41;75.90;;;18.08;;
46399;SDS011;32104;50.838;4.388;2022-12-10T09:51:48;78.45;;;15.18;;
46399;SDS011;32104;50.838;4.388;2022-12-10T09:54:34;73.63;;;15.80;;
46399;SDS011;32104;50.838;4.388;2022-12-10T09:57:10;70.57;;;18.38;;
46399;SDS011;32104;50.838;4.388;2022-12-10T09:59:49;63.20;;;15.02;;
46399;SDS011;32104;50.838;4.388;2022-12-10T10:02:28;74.88;;;16.42;;
46399;SDS011;32104;50.838;4.388;2022-12-10T10:05:02;65.72;;;16.23;;
46399;SDS011;32104;50.838;4.388;2022-12-10T10:07:31;55.22;;;15.27;;
46399;SDS011;32104;50.838;4.388;2022-12-10T10:10:05;71.20;;;14.73;;
46399;SDS011;32104;50.838;4.388;2022-12-10T10:12:37;61.97;;;15.48;;
46399;SDS011;32104;50.838;4.388;2022-12-10T10:15:12;69.93;;;14.63;;
46399;SDS011;32104;50.838;4.388;2022-12-10T10:25:41;60.88;;;15.82;;
46399;SDS011;32104;50.838;4.388;2022-12-10T10:28:15;67.38;;;15.32;;
46399;SDS011;32104;50.838;4.388;2022-12-10T10:30:44;58.42;;;14.95;;
46399;SDS011;32104;50.838;4.388;2022-12-10T10:33:11;57.70;;;14.50;;
46399;SDS011;32104;50.838;4.388;2022-12-10T10:38:20;60.95;;;15.32;;
46399;SDS011;32104;50.838;4.388;2022-12-10T10:40:57;56.72;;;13.27;;
46399;SDS011;32104;50.838;4.388;2022-12-10T10:48:38;59.13;;;14.32;;
46399;SDS011;32104;50.838;4.388;2022-12-10T10:51:22;58.00;;;13.82;;
46399;SDS011;32104;50.838;4.388;2022-12-10T10:53:53;62.63;;;13.63;;
46399;SDS011;32104;50.838;4.388;2022-12-10T10:56:23;56.35;;;15.18;;
46399;SDS011;32104;50.838;4.388;2022-12-10T11:01:45;63.63;;;15.45;;
46399;SDS011;32104;50.838;4.388;2022-12-10T11:04:12;59.45;;;14.98;;
46399;SDS011;32104;50.838;4.388;2022-12-10T11:06:43;57.92;;;15.60;;
46399;SDS011;32104;50.838;4.388;2022-12-10T11:09:15;59.15;;;14.93;;
46399;SDS011;32104;50.838;4.388;2022-12-10T11:11:49;53.25;;;15.20;;
46399;SDS011;32104;50.838;4.388;2022-12-10T11:14:29;64.20;;;15.07;;
46399;SDS011;32104;50.838;4.388;2022-12-10T11:20:00;63.33;;;13.98;;
46399;SDS011;32104;50.838;4.388;2022-12-10T11:22:51;56.72;;;14.40;;
46399;SDS011;32104;50.838;4.388;2022-12-10T11:25:57;61.83;;;14.45;;
46399;SDS011;32104;50.838;4.388;2022-12-10T11:30:59;49.42;;;12.85;;
46399;SDS011;32104;50.838;4.388;2022-12-10T11:39:30;62.25;;;14.68;;
46399;SDS011;32104;50.838;4.388;2022-12-10T11:56:23;56.10;;;12.07;;
46399;SDS011;32104;50.838;4.388;2022-12-10T12:04:25;61.85;;;13.85;;
46399;SDS011;32104;50.838;4.388;2022-12-10T12:12:41;64.32;;;14.90;;
46399;SDS011;32104;50.838;4.388;2022-12-10T12:21:17;56.17;;;15.35;;
46399;SDS011;32104;50.838;4.388;2022-12-10T12:23:49;70.25;;;15.18;;
46399;SDS011;32104;50.838;4.388;2022-12-10T12:26:45;60.40;;;13.75;;
46399;SDS011;32104;50.838;4.388;2022-12-10T12:29:25;55.42;;;13.80;;
46399;SDS011;32104;50.838;4.388;2022-12-10T12:32:04;61.10;;;14.07;;
46399;SDS011;32104;50.838;4.388;2022-12-10T12:37:22;56.60;;;12.32;;
46399;SDS011;32104;50.838;4.388;2022-12-10T12:40:03;55.38;;;13.45;;
46399;SDS011;32104;50.838;4.388;2022-12-10T12:45:15;49.35;;;13.90;;
46399;SDS011;32104;50.838;4.388;2022-12-10T12:51:00;49.70;;;13.02;;
46399;SDS011;32104;50.838;4.388;2022-12-10T12:53:49;59.28;;;13.02;;
46399;SDS011;32104;50.838;4.388;2022-12-10T12:56:52;42.28;;;10.45;;
46399;SDS011;32104;50.838;4.388;2022-12-10T12:59:52;39.88;;;10.82;;
46399;SDS011;32104;50.838;4.388;2022-12-10T13:05:34;51.08;;;12.45;;
46399;SDS011;32104;50.838;4.388;2022-12-10T13:13:39;44.92;;;10.45;;
46399;SDS011;32104;50.838;4.388;2022-12-10T13:27:18;50.10;;;11.52;;
46399;SDS011;32104;50.838;4.388;2022-12-10T13:46:31;46.03;;;11.23;;
46399;SDS011;32104;50.838;4.388;2022-12-10T13:49:00;58.70;;;12.85;;
46399;SDS011;32104;50.838;4.388;2022-12-10T13:51:31;36.22;;;10.50;;
46399;SDS011;32104;50.838;4.388;2022-12-10T14:00:29;39.78;;;10.48;;
46399;SDS011;32104;50.838;4.388;2022-12-10T14:08:34;53.28;;;11.73;;
46399;SDS011;32104;50.838;4.388;2022-12-10T14:11:15;54.28;;;12.52;;
46399;SDS011;32104;50.838;4.388;2022-12-10T14:14:05;51.10;;;11.68;;
46399;SDS011;32104;50.838;4.388;2022-12-10T14:16:36;34.92;;;11.30;;
46399;SDS011;32104;50.838;4.388;2022-12-10T14:19:06;46.88;;;12.50;;
46399;SDS011;32104;50.838;4.388;2022-12-10T14:21:37;49.28;;;12.32;;
46399;SDS011;32104;50.838;4.388;2022-12-10T14:26:57;55.13;;;12.07;;
46399;SDS011;32104;50.838;4.388;2022-12-10T14:29:35;52.83;;;12.60;;
46399;SDS011;32104;50.838;4.388;2022-12-10T14:32:01;46.15;;;12.82;;
46399;SDS011;32104;50.838;4.388;2022-12-10T14:34:45;49.30;;;13.40;;
46399;SDS011;32104;50.838;4.388;2022-12-10T14:37:20;45.58;;;11.20;;
46399;SDS011;32104;50.838;4.388;2022-12-10T14:43:37;51.53;;;12.13;;
46399;SDS011;32104;50.838;4.388;2022-12-10T14:46:14;51.88;;;14.27;;
46399;SDS011;32104;50.838;4.388;2022-12-10T14:48:48;44.33;;;13.60;;
46399;SDS011;32104;50.838;4.388;2022-12-10T14:51:16;48.28;;;11.93;;
46399;SDS011;32104;50.838;4.388;2022-12-10T14:53:55;52.63;;;12.38;;
46399;SDS011;32104;50.838;4.388;2022-12-10T15:01:46;45.10;;;10.97;;
46399;SDS011;32104;50.838;4.388;2022-12-10T15:04:18;50.92;;;12.40;;
46399;SDS011;32104;50.838;4.388;2022-12-10T15:06:49;47.60;;;12.35;;
46399;SDS011;32104;50.838;4.388;2022-12-10T15:09:21;48.35;;;13.43;;
46399;SDS011;32104;50.838;4.388;2022-12-10T15:11:56;39.85;;;11.00;;
46399;SDS011;32104;50.838;4.388;2022-12-10T15:14:26;41.17;;;11.27;;
46399;SDS011;32104;50.838;4.388;2022-12-10T15:16:57;46.88;;;11.38;;
46399;SDS011;32104;50.838;4.388;2022-12-10T15:19:24;41.90;;;12.07;;
46399;SDS011;32104;50.838;4.388;2022-12-10T15:22:00;49.38;;;12.25;;
46399;SDS011;32104;50.838;4.388;2022-12-10T15:24:45;49.35;;;11.82;;
46399;SDS011;32104;50.838;4.388;2022-12-10T15:27:19;46.05;;;12.43;;
46399;SDS011;32104;50.838;4.388;2022-12-10T15:29:51;44.35;;;13.18;;
46399;SDS011;32104;50.838;4.388;2022-12-10T15:32:25;43.92;;;13.15;;
46399;SDS011;32104;50.838;4.388;2022-12-10T15:35:00;44.08;;;12.27;;
46399;SDS011;32104;50.838;4.388;2022-12-10T15:37:35;49.15;;;12.70;;
46399;SDS011;32104;50.838;4.388;2022-12-10T15:40:24;37.17;;;11.10;;
46399;SDS011;32104;50.838;4.388;2022-12-10T15:42:55;40.08;;;10.93;;
46399;SDS011;32104;50.838;4.388;2022-12-10T15:45:37;35.92;;;9.68;;
46399;SDS011;32104;50.838;4.388;2022-12-10T15:48:08;39.03;;;11.15;;
46399;SDS011;32104;50.838;4.388;2022-12-10T15:50:36;42.03;;;11.27;;
46399;SDS011;32104;50.838;4.388;2022-12-10T15:53:13;52.92;;;12.25;;
46399;SDS011;32104;50.838;4.388;2022-12-10T15:56:02;37.45;;;11.38;;
46399;SDS011;32104;50.838;4.388;2022-12-10T16:01:45;40.13;;;10.93;;
46399;SDS011;32104;50.838;4.388;2022-12-10T16:08:17;36.80;;;10.90;;
46399;SDS011;32104;50.838;4.388;2022-12-10T16:14:25;43.53;;;11.38;;
46399;SDS011;32104;50.838;4.388;2022-12-10T16:20:22;40.10;;;11.82;;
46399;SDS011;32104;50.838;4.388;2022-12-10T16:22:56;46.97;;;13.45;;
46399;SDS011;32104;50.838;4.388;2022-12-10T16:25:28;35.53;;;11.43;;
46399;SDS011;32104;50.838;4.388;2022-12-10T16:34:56;45.88;;;12.77;;
46399;SDS011;32104;50.838;4.388;2022-12-10T16:38:00;46.67;;;12.68;;
46399;SDS011;32104;50.838;4.388;2022-12-10T16:43:45;43.65;;;11.57;;
46399;SDS011;32104;50.838;4.388;2022-12-10T16:46:28;44.55;;;12.70;;
46399;SDS011;32104;50.838;4.388;2022-12-10T16:49:17;41.55;;;12.30;;
46399;SDS011;32104;50.838;4.388;2022-12-10T16:52:10;47.22;;;13.02;;
46399;SDS011;32104;50.838;4.388;2022-12-10T17:05:36;39.72;;;11.68;;
46399;SDS011;32104;50.838;4.388;2022-12-10T17:12:03;52.97;;;13.55;;
46399;SDS011;32104;50.838;4.388;2022-12-10T17:34:48;33.03;;;10.98;;
46399;SDS011;32104;50.838;4.388;2022-12-10T17:37:28;46.05;;;11.98;;
46399;SDS011;32104;50.838;4.388;2022-12-10T17:46:53;48.47;;;13.63;;
46399;SDS011;32104;50.838;4.388;2022-12-10T17:49:31;52.40;;;13.93;;
46399;SDS011;32104;50.838;4.388;2022-12-10T17:52:08;38.47;;;12.20;;
46399;SDS011;32104;50.838;4.388;2022-12-10T17:54:37;40.17;;;12.38;;
46399;SDS011;32104;50.838;4.388;2022-12-10T18:03:17;37.45;;;12.77;;
46399;SDS011;32104;50.838;4.388;2022-12-10T18:05:44;34.28;;;12.45;;
46399;SDS011;32104;50.838;4.388;2022-12-10T18:08:14;42.55;;;12.05;;
46399;SDS011;32104;50.838;4.388;2022-12-10T18:10:59;42.97;;;13.02;;
46399;SDS011;32104;50.838;4.388;2022-12-10T18:13:37;41.90;;;12.50;;
46399;SDS011;32104;50.838;4.388;2022-12-10T18:16:20;43.35;;;12.68;;
46399;SDS011;32104;50.838;4.388;2022-12-10T18:19:10;38.78;;;12.23;;
46399;SDS011;32104;50.838;4.388;2022-12-10T18:21:56;37.42;;;12.80;;
46399;SDS011;32104;50.838;4.388;2022-12-10T18:24:45;44.28;;;13.13;;
46399;SDS011;32104;50.838;4.388;2022-12-10T18:27:20;45.13;;;15.25;;
46399;SDS011;32104;50.838;4.388;2022-12-10T18:30:12;40.35;;;14.43;;
46399;SDS011;32104;50.838;4.388;2022-12-10T18:33:02;40.17;;;13.07;;
46399;SDS011;32104;50.838;4.388;2022-12-10T18:38:50;35.85;;;12.15;;
46399;SDS011;32104;50.838;4.388;2022-12-10T18:41:36;37.05;;;13.43;;
46399;SDS011;32104;50.838;4.388;2022-12-10T18:44:27;40.50;;;12.30;;
46399;SDS011;32104;50.838;4.388;2022-12-10T18:53:15;46.15;;;14.15;;
46399;SDS011;32104;50.838;4.388;2022-12-10T18:58:42;37.38;;;12.55;;
46399;SDS011;32104;50.838;4.388;2022-12-10T19:01:30;36.97;;;12.27;;
46399;SDS011;32104;50.838;4.388;2022-12-10T19:03:56;36.97;;;11.00;;